createdAt,value
2023-03-01T00:01:41.542Z,34.92
2023-03-01T00:04:08.522Z,36.10
2023-03-01T00:06:35.433Z,39.20
2023-03-01T00:09:02.439Z,38.03
2023-03-01T00:11:32.174Z,40.20
2023-03-01T00:14:02.382Z,41.78
2023-03-01T00:16:34.675Z,35.35
2023-03-01T00:19:01.698Z,39.22
2023-03-01T00:21:29.154Z,37.40
2023-03-01T00:23:56.617Z,34.35
2023-03-01T00:26:25.965Z,38.30
2023-03-01T00:28:53.596Z,39.38
2023-03-01T00:31:26.654Z,38.65
2023-03-01T00:33:58.282Z,41.72
2023-03-01T00:36:31.015Z,41.00
2023-03-01T00:38:58.768Z,37.28
2023-03-01T00:41:27.684Z,42.20
2023-03-01T00:43:55.841Z,43.92
2023-03-01T00:46:27.698Z,37.15
2023-03-01T00:48:55.434Z,39.60
2023-03-01T00:51:27.439Z,40.20
2023-03-01T00:53:59.579Z,33.13
2023-03-01T00:56:27.525Z,30.42
2023-03-01T00:58:54.483Z,33.85
2023-03-01T01:01:32.464Z,32.10
2023-03-01T01:04:12.760Z,33.53
2023-03-01T01:06:46.644Z,31.15
2023-03-01T01:09:18.596Z,31.65
2023-03-01T01:11:51.756Z,30.80
2023-03-01T01:14:21.070Z,31.70
2023-03-01T01:16:49.453Z,33.85
2023-03-01T01:19:17.824Z,33.20
2023-03-01T01:21:45.828Z,35.17
2023-03-01T01:24:13.148Z,34.63
2023-03-01T01:26:40.120Z,36.13
2023-03-01T01:29:07.762Z,32.63
2023-03-01T01:31:37.857Z,29.10
2023-03-01T01:34:07.494Z,32.28
2023-03-01T01:36:35.241Z,34.25
2023-03-01T01:39:02.516Z,30.02
2023-03-01T01:41:30.840Z,31.65
2023-03-01T01:44:25.739Z,34.25
2023-03-01T01:47:04.715Z,32.15
2023-03-01T01:49:39.574Z,32.92
2023-03-01T01:52:35.547Z,31.35
2023-03-01T01:55:12.491Z,34.25
2023-03-01T01:57:46.273Z,33.25
2023-03-01T02:00:20.349Z,30.25
2023-03-01T02:02:56.075Z,34.92
2023-03-01T02:05:55.281Z,33.10
2023-03-01T02:08:27.930Z,31.58
2023-03-01T02:10:57.530Z,31.38
2023-03-01T02:13:24.740Z,38.00
2023-03-01T02:15:51.833Z,31.23
2023-03-01T02:18:22.002Z,29.30
2023-03-01T02:21:28.178Z,34.10
2023-03-01T02:23:56.904Z,31.52
2023-03-01T02:26:35.933Z,32.78
2023-03-01T02:29:02.967Z,37.67
2023-03-01T02:31:45.767Z,39.85
2023-03-01T02:34:19.389Z,32.40
2023-03-01T02:36:57.159Z,37.45
2023-03-01T02:39:42.762Z,35.42
2023-03-01T02:44:42.342Z,36.78
2023-03-01T02:47:09.431Z,35.58
2023-03-01T02:49:38.095Z,35.97
2023-03-01T02:52:43.692Z,39.35
2023-03-01T02:55:18.603Z,34.83
2023-03-01T02:57:51.555Z,38.80
2023-03-01T03:00:36.688Z,38.72
2023-03-01T03:03:04.545Z,39.65
2023-03-01T03:05:33.916Z,36.17
2023-03-01T03:08:04.321Z,36.15
2023-03-01T03:10:40.539Z,36.75
2023-03-01T03:13:12.370Z,39.75
2023-03-01T03:15:41.995Z,35.38
2023-03-01T03:18:13.922Z,39.58
2023-03-01T03:20:42.766Z,37.13
2023-03-01T03:23:10.089Z,42.15
2023-03-01T03:25:38.759Z,37.35
2023-03-01T03:28:10.592Z,40.33
2023-03-01T03:30:41.749Z,40.28
2023-03-01T03:33:13.625Z,39.38
2023-03-01T03:35:51.339Z,40.25
2023-03-01T03:38:22.888Z,37.28
2023-03-01T03:41:03.980Z,38.78
2023-03-01T03:43:34.817Z,43.17
2023-03-01T03:46:06.640Z,38.92
2023-03-01T03:48:41.254Z,42.05
2023-03-01T03:51:12.519Z,37.28
2023-03-01T03:53:39.848Z,37.55
2023-03-01T03:56:07.603Z,41.65
2023-03-01T03:58:34.727Z,42.33
2023-03-01T04:01:01.861Z,42.00
2023-03-01T04:03:31.579Z,41.35
2023-03-01T04:06:00.450Z,38.47
2023-03-01T04:08:28.478Z,48.10
2023-03-01T04:11:21.800Z,42.05
2023-03-01T04:13:49.386Z,37.92
2023-03-01T04:16:17.542Z,40.00
2023-03-01T04:18:45.285Z,39.67
2023-03-01T04:21:12.808Z,42.45
2023-03-01T04:23:41.663Z,44.55
2023-03-01T04:26:09.237Z,44.92
2023-03-01T04:28:47.099Z,39.00
2023-03-01T04:31:22.076Z,43.00
2023-03-01T04:33:56.237Z,43.05
2023-03-01T04:36:29.357Z,45.88
2023-03-01T04:38:57.233Z,41.53
2023-03-01T04:41:26.455Z,41.13
2023-03-01T04:43:53.840Z,42.17
2023-03-01T04:46:22.405Z,42.13
2023-03-01T04:48:49.876Z,39.63
2023-03-01T04:51:17.576Z,42.85
2023-03-01T04:53:45.294Z,46.50
2023-03-01T04:56:14.772Z,38.83
2023-03-01T04:58:43.026Z,42.63
2023-03-01T05:01:19.863Z,42.70
2023-03-01T05:03:52.518Z,42.90
2023-03-01T05:06:21.084Z,46.72
2023-03-01T05:08:48.084Z,44.63
2023-03-01T05:11:15.165Z,38.40
2023-03-01T05:13:42.527Z,40.85
2023-03-01T05:16:13.406Z,39.50
2023-03-01T05:18:41.754Z,46.65
2023-03-01T05:21:13.467Z,40.38
2023-03-01T05:23:40.667Z,41.58
2023-03-01T05:26:25.780Z,46.80
2023-03-01T05:29:00.287Z,45.80
2023-03-01T05:31:28.092Z,46.65
2023-03-01T05:33:54.988Z,43.42
2023-03-01T05:36:21.993Z,42.67
2023-03-01T05:38:48.881Z,41.53
2023-03-01T05:41:17.925Z,42.08
2023-03-01T05:43:46.092Z,43.65
2023-03-01T05:46:14.311Z,47.50
2023-03-01T05:48:41.717Z,38.78
2023-03-01T05:51:08.944Z,45.75
2023-03-01T05:53:35.875Z,42.80
2023-03-01T05:56:05.633Z,43.10
2023-03-01T05:58:32.604Z,41.80
2023-03-01T06:00:59.554Z,41.45
2023-03-01T06:03:26.513Z,39.35
2023-03-01T06:06:07.048Z,42.40
2023-03-01T06:08:34.044Z,43.05
2023-03-01T06:11:01.017Z,43.22
2023-03-01T06:13:27.975Z,46.40
2023-03-01T06:15:55.021Z,42.60
2023-03-01T06:18:22.678Z,45.63
2023-03-01T06:20:56.792Z,46.05
2023-03-01T06:23:25.170Z,49.00
2023-03-01T06:25:52.433Z,45.83
2023-03-01T06:28:19.612Z,39.20
2023-03-01T06:30:47.110Z,47.05
2023-03-01T06:33:14.091Z,41.90
2023-03-01T06:35:40.985Z,48.45
2023-03-01T06:38:08.429Z,46.65
2023-03-01T06:40:36.285Z,44.20
2023-03-01T06:43:03.245Z,48.80
2023-03-01T06:45:30.200Z,45.97
2023-03-01T06:48:08.636Z,48.97
2023-03-01T06:50:36.955Z,46.88
2023-03-01T06:53:10.408Z,45.38
2023-03-01T07:00:23.624Z,45.85
2023-03-01T07:02:51.172Z,48.88
2023-03-01T07:05:18.940Z,45.63
2023-03-01T07:07:46.919Z,48.60
2023-03-01T07:10:19.229Z,48.40
2023-03-01T07:12:49.164Z,45.17
2023-03-01T07:15:26.624Z,47.63
2023-03-01T07:17:54.751Z,48.33
2023-03-01T07:20:26.233Z,45.55
2023-03-01T07:22:55.705Z,48.55
2023-03-01T07:25:23.284Z,47.95
2023-03-01T07:27:53.354Z,42.83
2023-03-01T07:30:22.116Z,45.55
2023-03-01T07:32:49.456Z,50.03
2023-03-01T07:35:16.575Z,42.03
2023-03-01T07:37:46.633Z,43.63
2023-03-01T07:40:14.528Z,49.13
2023-03-01T07:42:41.464Z,46.92
2023-03-01T07:45:08.811Z,56.47
2023-03-01T07:47:35.800Z,48.45
2023-03-01T07:50:06.437Z,48.85
2023-03-01T07:52:43.655Z,53.13
2023-03-01T07:55:12.187Z,52.13
2023-03-01T07:57:42.264Z,52.50
2023-03-01T08:00:15.663Z,57.38
2023-03-01T08:02:52.564Z,47.10
2023-03-01T08:05:20.374Z,46.30
2023-03-01T08:07:47.384Z,49.30
2023-03-01T08:10:14.668Z,52.80
2023-03-01T08:12:41.718Z,46.25
2023-03-01T08:15:09.617Z,45.65
2023-03-01T08:17:36.680Z,45.80
2023-03-01T08:20:07.075Z,43.28
2023-03-01T08:22:34.197Z,40.95
2023-03-01T08:25:01.122Z,46.20
2023-03-01T08:27:28.194Z,42.80
2023-03-01T08:30:04.374Z,46.22
2023-03-01T08:32:56.404Z,50.60
2023-03-01T08:35:23.747Z,45.83
2023-03-01T08:37:50.775Z,44.38
2023-03-01T08:40:17.822Z,47.13
2023-03-01T08:42:44.809Z,46.88
2023-03-01T08:45:19.155Z,45.78
2023-03-01T08:47:56.311Z,46.00
2023-03-01T08:50:26.638Z,46.28
2023-03-01T08:53:20.682Z,51.30
2023-03-01T08:55:49.907Z,50.88
2023-03-01T08:58:17.640Z,49.22
2023-03-01T09:00:44.612Z,44.90
2023-03-01T09:03:11.742Z,44.45
2023-03-01T09:05:38.960Z,39.55
2023-03-01T09:08:06.189Z,41.53
2023-03-01T09:10:42.826Z,41.22
2023-03-01T09:13:29.483Z,42.55
2023-03-01T09:16:06.799Z,46.50
2023-03-01T09:18:35.102Z,46.00
2023-03-01T09:21:11.459Z,39.45
2023-03-01T09:23:47.710Z,41.78
2023-03-01T09:26:27.548Z,41.90
2023-03-01T09:28:56.375Z,51.30
2023-03-01T09:31:25.098Z,44.10
2023-03-01T09:33:55.689Z,39.40
2023-03-01T09:36:26.554Z,43.50
2023-03-01T09:38:56.396Z,44.15
2023-03-01T09:41:55.260Z,41.58
2023-03-01T09:44:50.932Z,42.55
2023-03-01T09:47:23.694Z,40.25
2023-03-01T09:50:19.725Z,42.95
2023-03-01T09:53:04.522Z,40.35
2023-03-01T09:55:59.993Z,40.47
2023-03-01T09:59:04.237Z,37.67
2023-03-01T10:01:47.813Z,36.47
2023-03-01T10:04:46.120Z,38.40
2023-03-01T10:07:43.835Z,42.95
2023-03-01T10:10:29.756Z,37.60
2023-03-01T10:12:58.419Z,39.63
2023-03-01T10:15:48.509Z,38.25
2023-03-01T10:18:21.436Z,37.42
2023-03-01T10:20:55.153Z,38.30
2023-03-01T10:23:25.487Z,36.72
2023-03-01T10:26:08.039Z,40.88
2023-03-01T10:28:55.432Z,37.63
2023-03-01T10:31:44.056Z,34.38
2023-03-01T10:34:29.380Z,33.47
2023-03-01T10:37:19.301Z,29.13
2023-03-01T10:40:10.346Z,24.70
2023-03-01T10:42:50.309Z,29.90
2023-03-01T10:45:33.071Z,23.48
2023-03-01T10:48:20.637Z,31.40
2023-03-01T10:50:58.533Z,31.88
2023-03-01T10:53:49.478Z,29.17
2023-03-01T10:56:17.118Z,24.48
2023-03-01T10:59:02.913Z,30.42
2023-03-01T11:01:39.116Z,31.67
2023-03-01T11:04:14.676Z,26.48
2023-03-01T11:06:59.659Z,27.65
2023-03-01T11:09:28.337Z,24.63
2023-03-01T11:12:04.849Z,24.98
2023-03-01T11:14:38.709Z,24.20
2023-03-01T11:17:24.048Z,24.85
2023-03-01T11:20:38.656Z,24.42
2023-03-01T11:23:15.265Z,24.38
2023-03-01T11:25:56.479Z,23.13
2023-03-01T11:28:27.385Z,21.48
2023-03-01T11:31:10.343Z,20.42
2023-03-01T11:33:59.594Z,22.23
2023-03-01T11:36:47.590Z,21.85
2023-03-01T11:39:43.836Z,21.08
2023-03-01T11:42:25.940Z,23.05
2023-03-01T11:44:59.721Z,21.98
2023-03-01T11:47:51.216Z,21.50
2023-03-01T11:50:50.817Z,17.48
2023-03-01T11:53:59.133Z,26.15
2023-03-01T11:56:46.848Z,18.83
2023-03-01T11:59:46.666Z,18.55
2023-03-01T12:02:46.736Z,20.67
2023-03-01T12:05:48.053Z,19.70
2023-03-01T12:08:35.864Z,21.90
2023-03-01T12:11:36.386Z,18.27
2023-03-01T12:14:38.999Z,21.90
2023-03-01T12:17:18.219Z,18.58
2023-03-01T12:20:25.723Z,21.63
2023-03-01T12:23:30.369Z,25.23
2023-03-01T12:26:13.295Z,21.45
2023-03-01T12:29:10.628Z,23.35
2023-03-01T12:32:08.352Z,23.83
2023-03-01T12:34:53.238Z,24.27
2023-03-01T12:37:35.695Z,27.20
2023-03-01T12:40:49.339Z,23.42
2023-03-01T12:44:07.558Z,26.23
2023-03-01T12:46:58.616Z,24.00
2023-03-01T12:49:38.751Z,25.77
2023-03-01T12:52:37.835Z,28.90
2023-03-01T12:55:22.468Z,26.13
2023-03-01T12:58:47.365Z,24.60
2023-03-01T13:01:42.546Z,24.92
2023-03-01T13:04:50.889Z,25.50
2023-03-01T13:07:26.134Z,26.73
2023-03-01T13:10:02.467Z,23.58
2023-03-01T13:12:58.186Z,28.25
2023-03-01T13:15:25.364Z,25.83
2023-03-01T13:18:02.381Z,26.33
2023-03-01T13:20:52.633Z,22.42
2023-03-01T13:23:22.659Z,21.88
2023-03-01T13:26:18.337Z,27.35
2023-03-01T13:28:45.199Z,23.40
2023-03-01T13:31:32.206Z,25.77
2023-03-01T13:34:01.543Z,26.92
2023-03-01T13:36:28.647Z,21.65
2023-03-01T13:39:02.166Z,20.98
2023-03-01T13:41:44.125Z,20.20
2023-03-01T13:44:39.624Z,26.70
2023-03-01T13:47:06.888Z,28.30
2023-03-01T13:50:00.004Z,29.15
2023-03-01T13:52:45.111Z,26.42
2023-03-01T13:55:17.819Z,21.98
2023-03-01T13:57:54.561Z,27.38
2023-03-01T14:00:39.758Z,26.58
2023-03-01T14:03:20.877Z,22.73
2023-03-01T14:06:28.204Z,27.17
2023-03-01T14:09:26.016Z,28.83
2023-03-01T14:12:42.419Z,21.80
2023-03-01T14:15:44.513Z,21.60
2023-03-01T14:18:40.059Z,25.45
2023-03-01T14:21:10.435Z,26.48
2023-03-01T14:23:42.969Z,24.80
2023-03-01T14:26:13.220Z,27.58
2023-03-01T14:28:43.399Z,24.55
2023-03-01T14:31:52.021Z,22.85
2023-03-01T14:34:25.438Z,25.85
2023-03-01T14:36:52.723Z,27.42
2023-03-01T14:39:27.377Z,23.88
2023-03-01T14:41:54.822Z,26.77
2023-03-01T14:44:25.753Z,22.42
2023-03-01T14:46:58.223Z,23.52
2023-03-01T14:49:37.282Z,24.67
2023-03-01T14:52:31.439Z,25.10
2023-03-01T14:54:58.590Z,21.45
2023-03-01T14:57:27.734Z,22.63
2023-03-01T15:00:01.352Z,23.20
2023-03-01T15:02:31.364Z,19.73
2023-03-01T15:05:08.104Z,19.27
2023-03-01T15:07:42.141Z,22.75
2023-03-01T15:10:28.148Z,24.08
2023-03-01T15:12:55.333Z,24.02
2023-03-01T15:15:29.622Z,22.40
2023-03-01T15:18:01.176Z,22.17
2023-03-01T15:20:31.511Z,21.10
2023-03-01T15:22:58.995Z,22.67
2023-03-01T15:25:30.893Z,24.23
2023-03-01T15:28:01.268Z,19.05
2023-03-01T15:30:38.436Z,20.35
2023-03-01T15:33:34.715Z,24.67
2023-03-01T15:38:55.180Z,21.38
2023-03-01T15:41:51.152Z,24.25
2023-03-01T15:47:31.012Z,20.25
2023-03-01T15:50:00.641Z,18.05
2023-03-01T15:52:41.521Z,22.33
2023-03-01T15:55:20.122Z,23.63
2023-03-01T15:57:48.302Z,21.02
2023-03-01T16:00:18.634Z,21.52
2023-03-01T16:02:46.283Z,19.23
2023-03-01T16:05:37.537Z,19.67
2023-03-01T16:08:07.205Z,19.67
2023-03-01T16:10:35.843Z,20.55
2023-03-01T16:13:02.723Z,20.42
2023-03-01T16:15:35.193Z,21.15
2023-03-01T16:18:02.732Z,19.95
2023-03-01T16:20:33.515Z,18.35
2023-03-01T16:23:07.568Z,14.32
2023-03-01T16:25:36.429Z,16.20
2023-03-01T16:28:09.606Z,16.45
2023-03-01T16:30:40.383Z,18.48
2023-03-01T16:33:31.138Z,21.70
2023-03-01T16:35:56.548Z,20.63
2023-03-01T16:38:23.771Z,18.77
2023-03-01T16:40:52.882Z,15.90
2023-03-01T16:43:20.158Z,23.90
2023-03-01T16:45:47.452Z,27.65
2023-03-01T16:48:14.915Z,20.20
2023-03-01T16:50:42.338Z,19.40
2023-03-01T16:53:09.559Z,19.65
2023-03-01T16:55:36.786Z,19.25
2023-03-01T16:58:05.097Z,20.70
2023-03-01T17:00:32.070Z,16.42
2023-03-01T17:02:59.452Z,19.58
2023-03-01T17:05:26.916Z,18.88
2023-03-01T17:07:56.611Z,17.30
2023-03-01T17:10:24.045Z,20.50
2023-03-01T17:12:51.212Z,21.73
2023-03-01T17:15:18.675Z,24.17
2023-03-01T17:17:45.754Z,20.75
2023-03-01T17:20:13.609Z,20.85
2023-03-01T17:22:40.933Z,19.15
2023-03-01T17:25:10.580Z,20.50
2023-03-01T17:27:39.360Z,21.75
2023-03-01T17:30:09.884Z,18.70
2023-03-01T17:32:37.089Z,15.57
2023-03-01T17:35:04.726Z,17.80
2023-03-01T17:37:31.609Z,20.27
2023-03-01T17:39:58.538Z,18.40
2023-03-01T17:42:25.672Z,17.90
2023-03-01T17:44:52.581Z,19.13
2023-03-01T17:47:19.907Z,20.42
2023-03-01T17:49:46.784Z,19.05
2023-03-01T17:52:13.697Z,20.55
2023-03-01T17:54:40.588Z,19.27
2023-03-01T17:57:07.671Z,24.50
2023-03-01T17:59:37.536Z,15.20
2023-03-01T18:02:04.919Z,19.55
2023-03-01T18:04:32.669Z,17.50
2023-03-01T18:06:59.896Z,18.27
2023-03-01T18:09:30.551Z,17.90
2023-03-01T18:11:57.540Z,14.82
2023-03-01T18:14:24.907Z,17.73
2023-03-01T18:16:51.975Z,17.10
2023-03-01T18:19:18.970Z,16.00
2023-03-01T18:21:45.861Z,18.15
2023-03-01T18:24:12.832Z,19.27
2023-03-01T18:26:40.437Z,16.42
2023-03-01T18:29:08.155Z,16.25
2023-03-01T18:31:35.210Z,16.98
2023-03-01T18:34:02.690Z,17.25
2023-03-01T18:36:34.282Z,15.98
2023-03-01T18:39:06.902Z,17.90
2023-03-01T18:41:34.918Z,17.33
2023-03-01T18:44:04.849Z,15.20
2023-03-01T18:46:32.665Z,16.05
2023-03-01T18:49:00.587Z,17.60
2023-03-01T18:51:30.132Z,16.88
2023-03-01T18:53:58.771Z,14.77
2023-03-01T18:56:28.569Z,15.45
2023-03-01T18:58:56.347Z,13.75
2023-03-01T19:01:30.735Z,11.77
2023-03-01T19:03:58.567Z,15.15
2023-03-01T19:06:31.762Z,17.42
2023-03-01T19:08:59.771Z,18.90
2023-03-01T19:11:30.643Z,14.52
2023-03-01T19:13:59.726Z,14.27
2023-03-01T19:16:31.023Z,15.73
2023-03-01T19:19:01.467Z,13.07
2023-03-01T19:21:35.173Z,12.95
2023-03-01T19:24:03.310Z,13.50
2023-03-01T19:26:32.159Z,14.07
2023-03-01T19:29:00.097Z,14.18
2023-03-01T19:31:30.655Z,14.30
2023-03-01T19:34:10.546Z,10.63
2023-03-01T19:36:42.541Z,14.20
2023-03-01T19:39:13.523Z,16.98
2023-03-01T19:41:41.180Z,16.15
2023-03-01T19:44:09.011Z,15.50
2023-03-01T19:46:36.618Z,13.57
2023-03-01T19:49:04.524Z,14.90
2023-03-01T19:51:36.836Z,13.52
2023-03-01T19:54:06.193Z,12.43
2023-03-01T19:56:34.261Z,12.23
2023-03-01T19:59:04.319Z,13.15
2023-03-01T20:01:34.473Z,14.25
2023-03-01T20:04:02.902Z,12.07
2023-03-01T20:06:30.918Z,12.57
2023-03-01T20:09:00.664Z,14.05
2023-03-01T20:11:31.816Z,17.50
2023-03-01T20:13:59.865Z,14.52
2023-03-01T20:16:27.227Z,15.15
2023-03-01T20:18:54.544Z,15.55
2023-03-01T20:21:24.437Z,14.85
2023-03-01T20:23:53.265Z,20.15
2023-03-01T20:26:23.119Z,17.73
2023-03-01T20:28:53.050Z,16.25
2023-03-01T20:31:23.049Z,16.65
2023-03-01T20:33:50.026Z,16.50
2023-03-01T20:36:18.154Z,15.88
2023-03-01T20:38:45.285Z,16.77
2023-03-01T20:41:13.877Z,16.48
2023-03-01T20:43:42.460Z,14.32
2023-03-01T20:46:13.298Z,19.20
2023-03-01T20:48:44.522Z,18.10
2023-03-01T20:51:15.185Z,16.95
2023-03-01T20:53:42.268Z,16.42
2023-03-01T20:56:15.693Z,15.48
2023-03-01T20:59:04.230Z,16.60
2023-03-01T21:01:31.735Z,15.88
2023-03-01T21:03:58.769Z,17.17
2023-03-01T21:06:25.784Z,18.13
2023-03-01T21:08:54.795Z,17.15
2023-03-01T21:11:25.366Z,17.25
2023-03-01T21:13:56.282Z,14.13
2023-03-01T21:16:24.103Z,17.90
2023-03-01T21:18:51.259Z,16.05
2023-03-01T21:21:22.664Z,17.90
2023-03-01T21:23:50.413Z,17.48
2023-03-01T21:26:27.129Z,18.50
2023-03-01T21:29:01.392Z,19.23
2023-03-01T21:31:33.953Z,18.05
2023-03-01T21:34:06.469Z,16.30
2023-03-01T21:36:35.237Z,19.50
2023-03-01T21:39:05.269Z,17.20
2023-03-01T21:41:37.189Z,17.10
2023-03-01T21:44:07.232Z,18.30
2023-03-01T21:46:37.993Z,17.13
2023-03-01T21:49:05.875Z,20.08
2023-03-01T21:51:33.848Z,22.33
2023-03-01T21:54:03.780Z,19.17
2023-03-01T21:56:35.016Z,19.08
2023-03-01T21:59:02.108Z,15.60
2023-03-01T22:01:29.222Z,18.25
2023-03-01T22:03:58.718Z,18.73
2023-03-01T22:06:40.357Z,20.83
2023-03-01T22:09:15.843Z,20.27
2023-03-01T22:14:18.431Z,21.90
2023-03-01T22:16:47.685Z,21.27
2023-03-01T22:19:16.878Z,24.25
2023-03-01T22:21:49.152Z,27.70
2023-03-01T22:24:22.345Z,26.10
2023-03-01T22:26:51.648Z,23.08
2023-03-01T22:29:27.432Z,21.30
2023-03-01T22:31:56.825Z,21.88
2023-03-01T22:34:24.353Z,22.67
2023-03-01T22:36:51.507Z,24.20
2023-03-01T22:39:20.802Z,27.02
2023-03-01T22:41:49.815Z,25.95
2023-03-01T22:44:21.612Z,24.60
2023-03-01T22:46:49.924Z,22.88
2023-03-01T22:49:18.036Z,30.33
2023-03-01T22:51:47.441Z,26.13
2023-03-01T22:54:15.331Z,25.30
2023-03-01T22:56:44.916Z,26.08
2023-03-01T22:59:16.252Z,25.38
2023-03-01T23:01:46.491Z,30.52
2023-03-01T23:04:15.641Z,24.58
2023-03-01T23:06:55.611Z,23.38
2023-03-01T23:09:33.844Z,25.40
2023-03-01T23:12:06.757Z,29.00
2023-03-01T23:14:34.885Z,27.75
2023-03-01T23:17:03.105Z,26.50
2023-03-01T23:19:31.974Z,28.77
2023-03-01T23:21:59.017Z,30.35
2023-03-01T23:24:31.134Z,27.05
2023-03-01T23:27:01.338Z,26.70
2023-03-01T23:29:28.276Z,22.35
2023-03-01T23:31:59.074Z,27.95
2023-03-01T23:34:27.116Z,23.25
2023-03-01T23:36:55.427Z,22.25
2023-03-01T23:39:22.913Z,28.60
2023-03-01T23:41:50.550Z,27.50
2023-03-01T23:44:20.827Z,28.48
2023-03-01T23:46:49.422Z,27.05
2023-03-01T23:49:22.998Z,24.83
2023-03-01T23:51:49.931Z,28.85
2023-03-01T23:54:21.437Z,24.63
2023-03-01T23:56:48.476Z,30.50
2023-03-01T23:59:22.403Z,27.50
